HGO285 EGHH-LFLX
Flight info
| Callsign | HGO285 |
|---|---|
| Flight time | 0h 54m |
| Altitude | 29000 |
| Route | GWC UN859 LGL DCT VEROS |
| Aircraft | B77L/H-SDE1E2E3FGHIJ2J3J4J5M1RWXY/LB1D1 |
Departure
| Time | 2026-05-05 18:39 |
|---|---|
| Airport | Bournemouth Airport (EGHH) |
Arrival
| Time | 2026-05-05 19:34 |
|---|---|
| Airport | Châteauroux Déols airport (LFLX) |
| Time | Latitude | Longitude | Altitude | Speed | Heading |
|---|---|---|---|---|---|
| 2026-05-05 17:40 | 50.77781 | -1.84018 | 45 ft | 0 kts | 254° |
| 2026-05-05 18:12 | 50.77773 | -1.84057 | 45 ft | 4 kts | 255° |
| 2026-05-05 18:13 | 50.77773 | -1.84091 | 45 ft | 0 kts | 280° |
| 2026-05-05 18:13 | 50.77773 | -1.84083 | 45 ft | 1 kts | 290° |
| 2026-05-05 18:13 | 50.77765 | -1.84063 | 45 ft | 2 kts | 307° |
| 2026-05-05 18:13 | 50.77757 | -1.84044 | 45 ft | 2 kts | 304° |
| 2026-05-05 18:14 | 50.77748 | -1.84024 | 45 ft | 2 kts | 302° |
| 2026-05-05 18:14 | 50.77741 | -1.84005 | 45 ft | 2 kts | 303° |
| 2026-05-05 18:14 | 50.77732 | -1.83985 | 45 ft | 2 kts | 303° |
| 2026-05-05 18:14 | 50.77724 | -1.83965 | 45 ft | 2 kts | 303° |
| 2026-05-05 18:15 | 50.77716 | -1.83945 | 45 ft | 2 kts | 303° |
| 2026-05-05 18:15 | 50.77708 | -1.83925 | 45 ft | 2 kts | 303° |
| 2026-05-05 18:15 | 50.77700 | -1.83906 | 45 ft | 2 kts | 302° |
| 2026-05-05 18:15 | 50.77692 | -1.83886 | 45 ft | 2 kts | 301° |
| 2026-05-05 18:16 | 50.77684 | -1.83866 | 45 ft | 2 kts | 303° |
| 2026-05-05 18:16 | 50.77676 | -1.83846 | 45 ft | 2 kts | 303° |
| 2026-05-05 18:16 | 50.77667 | -1.83827 | 45 ft | 2 kts | 304° |
| 2026-05-05 18:16 | 50.77659 | -1.83807 | 45 ft | 2 kts | 305° |
| 2026-05-05 18:17 | 50.77650 | -1.83788 | 45 ft | 2 kts | 306° |
| 2026-05-05 18:17 | 50.77641 | -1.83769 | 45 ft | 2 kts | 307° |
| 2026-05-05 18:17 | 50.77632 | -1.83750 | 45 ft | 2 kts | 308° |
| 2026-05-05 18:17 | 50.77623 | -1.83732 | 45 ft | 2 kts | 309° |
| 2026-05-05 18:18 | 50.77611 | -1.83716 | 45 ft | 2 kts | 330° |
| 2026-05-05 18:18 | 50.77601 | -1.83708 | 45 ft | 0 kts | 345° |
| 2026-05-05 18:18 | 50.77597 | -1.83706 | 45 ft | 0 kts | 346° |
| 2026-05-05 18:24 | 50.77598 | -1.83707 | 45 ft | 1 kts | 345° |
| 2026-05-05 18:24 | 50.77647 | -1.83727 | 45 ft | 9 kts | 346° |
| 2026-05-05 18:25 | 50.77707 | -1.83751 | 45 ft | 8 kts | 345° |
| 2026-05-05 18:25 | 50.77743 | -1.83766 | 45 ft | 7 kts | 345° |
| 2026-05-05 18:25 | 50.77809 | -1.83795 | 45 ft | 7 kts | 344° |
| 2026-05-05 18:25 | 50.77866 | -1.83820 | 45 ft | 10 kts | 345° |
| 2026-05-05 18:26 | 50.77893 | -1.83832 | 45 ft | 0 kts | 345° |
| 2026-05-05 18:29 | 50.77930 | -1.83847 | 45 ft | 8 kts | 345° |
| 2026-05-05 18:29 | 50.77986 | -1.83868 | 45 ft | 7 kts | 348° |
| 2026-05-05 18:29 | 50.78032 | -1.83895 | 45 ft | 6 kts | 314° |
| 2026-05-05 18:29 | 50.78044 | -1.83961 | 45 ft | 6 kts | 269° |
| 2026-05-05 18:30 | 50.78036 | -1.84045 | 45 ft | 9 kts | 259° |
| 2026-05-05 18:30 | 50.78017 | -1.84182 | 45 ft | 17 kts | 257° |
| 2026-05-05 18:30 | 50.77978 | -1.84422 | 48 ft | 28 kts | 256° |
| 2026-05-05 18:30 | 50.77919 | -1.84783 | 48 ft | 39 kts | 255° |
| 2026-05-05 18:31 | 50.77851 | -1.85209 | 48 ft | 39 kts | 255° |
| 2026-05-05 18:31 | 50.77793 | -1.85545 | 47 ft | 18 kts | 255° |
| 2026-05-05 18:31 | 50.77766 | -1.85658 | 47 ft | 8 kts | 230° |
| 2026-05-05 18:31 | 50.77740 | -1.85699 | 46 ft | 5 kts | 222° |
| 2026-05-05 18:32 | 50.77728 | -1.85747 | 46 ft | 2 kts | 294° |
| 2026-05-05 18:32 | 50.77745 | -1.85755 | 46 ft | 1 kts | 22° |
| 2026-05-05 18:32 | 50.77750 | -1.85747 | 46 ft | 0 kts | 58° |
| 2026-05-05 18:33 | 50.77758 | -1.85728 | 46 ft | 6 kts | 57° |
| 2026-05-05 18:33 | 50.77766 | -1.85695 | 47 ft | 0 kts | 74° |
| 2026-05-05 18:38 | 50.77820 | -1.85383 | 48 ft | 65 kts | 75° |
| 2026-05-05 18:39 | 50.78001 | -1.84307 | 48 ft | 135 kts | 75° |
| 2026-05-05 18:39 | 50.78262 | -1.82617 | 201 ft | 173 kts | 77° |
| 2026-05-05 18:39 | 50.78585 | -1.80830 | 945 ft | 169 kts | 54° |
| 2026-05-05 18:39 | 50.79273 | -1.79408 | 1643 ft | 168 kts | 58° |
| 2026-05-05 18:40 | 50.79618 | -1.77539 | 2040 ft | 188 kts | 74° |
| 2026-05-05 18:40 | 50.79847 | -1.75425 | 2445 ft | 204 kts | 76° |
| 2026-05-05 18:40 | 50.80108 | -1.73156 | 2873 ft | 222 kts | 76° |
| 2026-05-05 18:40 | 50.80616 | -1.70806 | 3338 ft | 235 kts | 56° |
| 2026-05-05 18:41 | 50.81592 | -1.68650 | 3862 ft | 247 kts | 51° |
| 2026-05-05 18:41 | 50.82667 | -1.66476 | 3985 ft | 250 kts | 50° |
| 2026-05-05 18:41 | 50.83759 | -1.64295 | 4218 ft | 263 kts | 50° |
| 2026-05-05 18:41 | 50.84871 | -1.62082 | 5290 ft | 257 kts | 50° |
| 2026-05-05 18:42 | 50.85981 | -1.59892 | 6145 ft | 259 kts | 50° |
| 2026-05-05 18:42 | 50.87119 | -1.57660 | 6881 ft | 265 kts | 50° |
| 2026-05-05 18:42 | 50.88267 | -1.55386 | 7627 ft | 269 kts | 53° |
| 2026-05-05 18:42 | 50.89281 | -1.52896 | 8335 ft | 274 kts | 53° |
| 2026-05-05 18:43 | 50.90433 | -1.50492 | 9072 ft | 277 kts | 50° |
| 2026-05-05 18:43 | 50.91624 | -1.48095 | 9732 ft | 281 kts | 50° |
| 2026-05-05 18:43 | 50.92836 | -1.45656 | 9922 ft | 284 kts | 50° |
| 2026-05-05 18:43 | 50.94049 | -1.43209 | 9938 ft | 282 kts | 50° |
| 2026-05-05 18:44 | 50.95259 | -1.40767 | 9939 ft | 282 kts | 50° |
| 2026-05-05 18:44 | 50.96468 | -1.38329 | 9940 ft | 282 kts | 50° |
| 2026-05-05 18:44 | 50.97673 | -1.35892 | 9940 ft | 282 kts | 50° |
| 2026-05-05 18:44 | 50.98933 | -1.33343 | 9952 ft | 307 kts | 51° |
| 2026-05-05 18:45 | 51.00299 | -1.30578 | 9940 ft | 320 kts | 51° |
| 2026-05-05 18:45 | 51.01632 | -1.27869 | 9932 ft | 305 kts | 51° |
| 2026-05-05 18:45 | 51.02896 | -1.25272 | 9926 ft | 290 kts | 54° |
| 2026-05-05 18:45 | 51.03674 | -1.22393 | 9924 ft | 286 kts | 80° |
| 2026-05-05 18:46 | 51.03748 | -1.19232 | 9943 ft | 289 kts | 90° |
| 2026-05-05 18:46 | 51.03675 | -1.16049 | 9937 ft | 288 kts | 91° |
| 2026-05-05 18:46 | 51.03589 | -1.12876 | 9938 ft | 288 kts | 91° |
| 2026-05-05 18:46 | 51.03502 | -1.09684 | 9977 ft | 298 kts | 91° |
| 2026-05-05 18:47 | 51.03412 | -1.06290 | 10228 ft | 318 kts | 91° |
| 2026-05-05 18:47 | 51.03323 | -1.02701 | 10588 ft | 335 kts | 91° |
| 2026-05-05 18:47 | 51.03213 | -0.98939 | 11005 ft | 352 kts | 95° |
| 2026-05-05 18:47 | 51.02591 | -0.95062 | 11518 ft | 368 kts | 111° |
| 2026-05-05 18:48 | 51.01342 | -0.91507 | 11902 ft | 374 kts | 124° |
| 2026-05-05 18:48 | 50.99614 | -0.88455 | 11938 ft | 375 kts | 137° |
| 2026-05-05 18:48 | 50.97522 | -0.86018 | 11945 ft | 375 kts | 145° |
| 2026-05-05 18:48 | 50.95325 | -0.83727 | 11934 ft | 375 kts | 146° |
| 2026-05-05 18:49 | 50.93150 | -0.81471 | 11923 ft | 374 kts | 146° |
| 2026-05-05 18:49 | 50.90974 | -0.79216 | 11968 ft | 381 kts | 146° |
| 2026-05-05 18:49 | 50.88739 | -0.76894 | 12728 ft | 386 kts | 146° |
| 2026-05-05 18:49 | 50.86536 | -0.74606 | 13895 ft | 381 kts | 146° |
| 2026-05-05 18:50 | 50.84338 | -0.72335 | 14795 ft | 383 kts | 146° |
| 2026-05-05 18:50 | 50.82106 | -0.70033 | 15527 ft | 391 kts | 146° |
| 2026-05-05 18:50 | 50.79800 | -0.67662 | 16295 ft | 396 kts | 146° |
| 2026-05-05 18:50 | 50.77473 | -0.65388 | 17115 ft | 401 kts | 151° |
| 2026-05-05 18:51 | 50.74955 | -0.63407 | 17915 ft | 405 kts | 153° |
| 2026-05-05 18:51 | 50.72433 | -0.61476 | 18738 ft | 408 kts | 153° |
| 2026-05-05 18:51 | 50.69881 | -0.59527 | 19501 ft | 412 kts | 153° |
| 2026-05-05 18:51 | 50.67282 | -0.57544 | 20227 ft | 417 kts | 153° |
| 2026-05-05 18:52 | 50.64682 | -0.55562 | 20901 ft | 423 kts | 153° |
| 2026-05-05 18:52 | 50.62034 | -0.53546 | 21554 ft | 428 kts | 153° |
| 2026-05-05 18:52 | 50.59329 | -0.51490 | 22228 ft | 433 kts | 153° |
| 2026-05-05 18:52 | 50.56631 | -0.49441 | 22906 ft | 437 kts | 153° |
| 2026-05-05 18:53 | 50.53870 | -0.47347 | 23570 ft | 441 kts | 153° |
| 2026-05-05 18:53 | 50.51127 | -0.45268 | 24233 ft | 445 kts | 153° |
| 2026-05-05 18:53 | 50.48320 | -0.43145 | 24941 ft | 447 kts | 153° |
| 2026-05-05 18:53 | 50.45531 | -0.41037 | 25639 ft | 449 kts | 153° |
| 2026-05-05 18:54 | 50.42726 | -0.38921 | 26289 ft | 452 kts | 153° |
| 2026-05-05 18:54 | 50.39893 | -0.36784 | 26847 ft | 457 kts | 153° |
| 2026-05-05 18:54 | 50.37033 | -0.34632 | 26923 ft | 459 kts | 154° |
| 2026-05-05 18:54 | 50.34151 | -0.32465 | 26922 ft | 456 kts | 154° |
| 2026-05-05 18:55 | 50.31292 | -0.30318 | 26924 ft | 455 kts | 154° |
| 2026-05-05 18:55 | 50.28448 | -0.28185 | 26925 ft | 456 kts | 154° |
| 2026-05-05 18:55 | 50.25612 | -0.26061 | 26925 ft | 456 kts | 154° |
| 2026-05-05 18:55 | 50.22768 | -0.23933 | 26928 ft | 455 kts | 154° |
| 2026-05-05 18:56 | 50.19870 | -0.21767 | 27150 ft | 464 kts | 154° |
| 2026-05-05 18:56 | 50.16970 | -0.19602 | 27893 ft | 465 kts | 154° |
| 2026-05-05 18:56 | 50.14091 | -0.17457 | 28706 ft | 461 kts | 154° |
| 2026-05-05 18:56 | 50.11216 | -0.15316 | 28908 ft | 461 kts | 154° |
| 2026-05-05 18:57 | 50.05470 | -0.11046 | 28915 ft | 456 kts | 154° |
| 2026-05-05 18:57 | 49.99711 | -0.06777 | 28910 ft | 457 kts | 154° |
| 2026-05-05 18:58 | 49.93935 | -0.02504 | 28908 ft | 458 kts | 154° |
| 2026-05-05 18:58 | 49.88149 | 0.01768 | 28911 ft | 457 kts | 154° |
| 2026-05-05 18:59 | 49.82438 | 0.05974 | 28898 ft | 457 kts | 154° |
| 2026-05-05 18:59 | 49.76725 | 0.10172 | 28901 ft | 455 kts | 153° |
| 2026-05-05 19:00 | 49.71551 | 0.15094 | 27318 ft | 464 kts | 114° |
| 2026-05-05 19:00 | 49.71118 | 0.19935 | 22342 ft | 514 kts | 99° |
| 2026-05-05 19:00 | 49.69797 | 0.24392 | 25277 ft | 447 kts | 123° |
| 2026-05-05 19:01 | 49.67960 | 0.28149 | 26229 ft | 446 kts | 130° |
| 2026-05-05 19:01 | 49.65710 | 0.31540 | 26428 ft | 460 kts | 140° |
| 2026-05-05 19:01 | 49.63055 | 0.34342 | 26879 ft | 469 kts | 149° |
| 2026-05-05 19:01 | 49.60104 | 0.36418 | 27765 ft | 467 kts | 159° |
| 2026-05-05 19:02 | 49.57013 | 0.37716 | 28648 ft | 466 kts | 168° |
| 2026-05-05 19:02 | 49.53805 | 0.38293 | 28885 ft | 467 kts | 176° |
| 2026-05-05 19:02 | 49.47420 | 0.37096 | 28891 ft | 464 kts | 195° |
| 2026-05-05 19:03 | 49.41217 | 0.34189 | 28882 ft | 465 kts | 188° |
| 2026-05-05 19:03 | 49.34797 | 0.33459 | 28884 ft | 462 kts | 177° |
| 2026-05-05 19:04 | 49.28427 | 0.34268 | 28879 ft | 462 kts | 169° |
| 2026-05-05 19:04 | 49.22106 | 0.36019 | 28876 ft | 462 kts | 166° |
| 2026-05-05 19:05 | 49.15866 | 0.38174 | 28877 ft | 461 kts | 165° |
| 2026-05-05 19:05 | 49.09645 | 0.40541 | 28871 ft | 463 kts | 163° |
| 2026-05-05 19:06 | 49.03425 | 0.43018 | 28872 ft | 462 kts | 162° |
| 2026-05-05 19:06 | 48.97216 | 0.45545 | 28855 ft | 463 kts | 162° |
| 2026-05-05 19:07 | 48.91029 | 0.48087 | 28850 ft | 462 kts | 162° |
| 2026-05-05 19:07 | 48.84830 | 0.50644 | 28843 ft | 463 kts | 162° |
| 2026-05-05 19:08 | 48.78817 | 0.53909 | 28836 ft | 459 kts | 149° |
| 2026-05-05 19:08 | 48.73657 | 0.59422 | 28846 ft | 455 kts | 139° |
| 2026-05-05 19:09 | 48.68705 | 0.65334 | 28852 ft | 455 kts | 140° |
| 2026-05-05 19:09 | 48.63740 | 0.71239 | 28850 ft | 454 kts | 140° |
| 2026-05-05 19:10 | 48.58788 | 0.77108 | 28860 ft | 453 kts | 139° |
| 2026-05-05 19:10 | 48.53847 | 0.82950 | 28847 ft | 453 kts | 140° |
| 2026-05-05 19:11 | 48.48861 | 0.88828 | 28861 ft | 453 kts | 139° |
| 2026-05-05 19:11 | 48.43945 | 0.94607 | 28842 ft | 453 kts | 139° |
| 2026-05-05 19:12 | 48.38966 | 1.00444 | 28841 ft | 452 kts | 139° |
| 2026-05-05 19:12 | 48.33999 | 1.06252 | 28840 ft | 454 kts | 139° |
| 2026-05-05 19:13 | 48.29055 | 1.12015 | 28842 ft | 451 kts | 139° |
| 2026-05-05 19:13 | 48.24095 | 1.17784 | 28829 ft | 450 kts | 139° |
| 2026-05-05 19:14 | 48.19229 | 1.23430 | 28203 ft | 441 kts | 140° |
| 2026-05-05 19:14 | 48.16801 | 1.26244 | 27379 ft | 442 kts | 140° |
| 2026-05-05 19:14 | 48.14372 | 1.29055 | 26695 ft | 441 kts | 140° |
| 2026-05-05 19:15 | 48.11962 | 1.31840 | 26150 ft | 436 kts | 140° |
| 2026-05-05 19:15 | 48.09584 | 1.34585 | 25629 ft | 431 kts | 140° |
| 2026-05-05 19:15 | 48.07260 | 1.37265 | 25091 ft | 426 kts | 141° |
| 2026-05-05 19:15 | 48.04906 | 1.39975 | 24541 ft | 422 kts | 141° |
| 2026-05-05 19:16 | 48.02613 | 1.42613 | 24051 ft | 416 kts | 141° |
| 2026-05-05 19:16 | 48.00342 | 1.45222 | 23554 ft | 412 kts | 141° |
| 2026-05-05 19:16 | 47.98095 | 1.47801 | 22893 ft | 408 kts | 141° |
| 2026-05-05 19:16 | 47.95849 | 1.50376 | 21943 ft | 404 kts | 141° |
| 2026-05-05 19:17 | 47.93644 | 1.52901 | 20963 ft | 402 kts | 142° |
| 2026-05-05 19:17 | 47.91457 | 1.55403 | 20292 ft | 397 kts | 142° |
| 2026-05-05 19:17 | 47.89280 | 1.57890 | 19721 ft | 396 kts | 142° |
| 2026-05-05 19:17 | 47.87119 | 1.60356 | 19214 ft | 392 kts | 142° |
| 2026-05-05 19:18 | 47.84952 | 1.62826 | 18722 ft | 389 kts | 142° |
| 2026-05-05 19:18 | 47.82825 | 1.65249 | 18233 ft | 386 kts | 143° |
| 2026-05-05 19:18 | 47.80719 | 1.67645 | 17744 ft | 383 kts | 143° |
| 2026-05-05 19:18 | 47.78624 | 1.70026 | 17261 ft | 380 kts | 143° |
| 2026-05-05 19:19 | 47.76514 | 1.72422 | 16771 ft | 377 kts | 143° |
| 2026-05-05 19:19 | 47.74455 | 1.74757 | 16281 ft | 374 kts | 144° |
| 2026-05-05 19:19 | 47.72404 | 1.77080 | 15812 ft | 371 kts | 144° |
| 2026-05-05 19:19 | 47.70372 | 1.79381 | 15346 ft | 368 kts | 144° |
| 2026-05-05 19:20 | 47.68333 | 1.81686 | 14867 ft | 366 kts | 144° |
| 2026-05-05 19:20 | 47.66329 | 1.83949 | 14402 ft | 363 kts | 144° |
| 2026-05-05 19:20 | 47.64353 | 1.86180 | 14061 ft | 357 kts | 144° |
| 2026-05-05 19:20 | 47.62338 | 1.88450 | 13657 ft | 368 kts | 144° |
| 2026-05-05 19:21 | 47.60306 | 1.90737 | 13166 ft | 369 kts | 144° |
| 2026-05-05 19:21 | 47.58288 | 1.93007 | 12723 ft | 365 kts | 144° |
| 2026-05-05 19:21 | 47.56263 | 1.95284 | 12283 ft | 361 kts | 144° |
| 2026-05-05 19:21 | 47.54285 | 1.97505 | 11840 ft | 358 kts | 144° |
| 2026-05-05 19:22 | 47.52325 | 1.99704 | 11378 ft | 356 kts | 144° |
| 2026-05-05 19:22 | 47.50372 | 2.01892 | 10914 ft | 353 kts | 144° |
| 2026-05-05 19:22 | 47.48422 | 2.04077 | 10653 ft | 344 kts | 144° |
| 2026-05-05 19:22 | 47.46560 | 2.06162 | 10590 ft | 329 kts | 145° |
| 2026-05-05 19:23 | 47.44779 | 2.08154 | 10499 ft | 317 kts | 145° |
| 2026-05-05 19:23 | 47.43056 | 2.10080 | 10381 ft | 305 kts | 145° |
| 2026-05-05 19:23 | 47.41375 | 2.11955 | 10258 ft | 295 kts | 145° |
| 2026-05-05 19:23 | 47.39783 | 2.13730 | 10139 ft | 284 kts | 146° |
| 2026-05-05 19:24 | 47.38248 | 2.15440 | 10025 ft | 273 kts | 146° |
| 2026-05-05 19:24 | 47.36742 | 2.17114 | 9764 ft | 269 kts | 147° |
| 2026-05-05 19:24 | 47.35090 | 2.18345 | 9386 ft | 263 kts | 171° |
| 2026-05-05 19:24 | 47.33306 | 2.18408 | 9054 ft | 256 kts | 195° |
| 2026-05-05 19:25 | 47.31687 | 2.17464 | 8802 ft | 250 kts | 210° |
| 2026-05-05 19:25 | 47.30152 | 2.16161 | 8511 ft | 260 kts | 210° |
| 2026-05-05 19:25 | 47.28638 | 2.14715 | 8198 ft | 259 kts | 218° |
| 2026-05-05 19:25 | 47.27207 | 2.13123 | 7887 ft | 258 kts | 219° |
| 2026-05-05 19:26 | 47.25784 | 2.11556 | 7577 ft | 257 kts | 218° |
| 2026-05-05 19:26 | 47.24338 | 2.09995 | 7312 ft | 253 kts | 218° |
| 2026-05-05 19:26 | 47.22918 | 2.08484 | 7181 ft | 254 kts | 218° |
| 2026-05-05 19:26 | 47.21477 | 2.06982 | 7055 ft | 254 kts | 217° |
| 2026-05-05 19:27 | 47.20036 | 2.05505 | 6929 ft | 253 kts | 217° |
| 2026-05-05 19:27 | 47.18590 | 2.04043 | 6803 ft | 252 kts | 217° |
| 2026-05-05 19:27 | 47.17123 | 2.02578 | 6695 ft | 252 kts | 216° |
| 2026-05-05 19:27 | 47.15670 | 2.01146 | 6618 ft | 253 kts | 216° |
| 2026-05-05 19:28 | 47.14212 | 1.99725 | 6543 ft | 252 kts | 216° |
| 2026-05-05 19:28 | 47.12736 | 1.98302 | 6447 ft | 253 kts | 216° |
| 2026-05-05 19:28 | 47.11263 | 1.96891 | 6113 ft | 255 kts | 216° |
| 2026-05-05 19:28 | 47.09792 | 1.95483 | 5782 ft | 254 kts | 216° |
| 2026-05-05 19:29 | 47.08302 | 1.94057 | 5447 ft | 253 kts | 216° |
| 2026-05-05 19:29 | 47.06839 | 1.92657 | 5115 ft | 252 kts | 216° |
| 2026-05-05 19:29 | 47.05381 | 1.91263 | 4781 ft | 252 kts | 216° |
| 2026-05-05 19:29 | 47.03907 | 1.89854 | 4440 ft | 252 kts | 216° |
| 2026-05-05 19:30 | 47.02455 | 1.88467 | 4102 ft | 251 kts | 216° |
| 2026-05-05 19:30 | 47.01004 | 1.87081 | 3754 ft | 246 kts | 216° |
| 2026-05-05 19:30 | 46.99607 | 1.85757 | 3430 ft | 231 kts | 216° |
| 2026-05-05 19:30 | 46.98307 | 1.84529 | 3148 ft | 216 kts | 217° |
| 2026-05-05 19:31 | 46.97086 | 1.83371 | 2861 ft | 202 kts | 217° |
| 2026-05-05 19:31 | 46.95938 | 1.82279 | 2585 ft | 187 kts | 217° |
| 2026-05-05 19:31 | 46.94891 | 1.81282 | 2333 ft | 174 kts | 218° |
| 2026-05-05 19:31 | 46.93938 | 1.80374 | 2082 ft | 155 kts | 219° |
| 2026-05-05 19:32 | 46.93072 | 1.79542 | 1883 ft | 146 kts | 218° |
| 2026-05-05 19:32 | 46.92215 | 1.78724 | 1678 ft | 145 kts | 218° |
| 2026-05-05 19:32 | 46.91380 | 1.77927 | 1463 ft | 144 kts | 218° |
| 2026-05-05 19:32 | 46.90533 | 1.77118 | 1260 ft | 147 kts | 218° |
| 2026-05-05 19:33 | 46.89688 | 1.76315 | 1058 ft | 145 kts | 217° |
| 2026-05-05 19:33 | 46.88835 | 1.75501 | 823 ft | 146 kts | 217° |
| 2026-05-05 19:33 | 46.87984 | 1.74688 | 647 ft | 147 kts | 216° |
| 2026-05-05 19:33 | 46.87135 | 1.73872 | 526 ft | 136 kts | 213° |
| 2026-05-05 19:34 | 46.86496 | 1.73273 | 524 ft | 87 kts | 215° |
| 2026-05-05 19:34 | 46.86087 | 1.72887 | 524 ft | 33 kts | 214° |
| 2026-05-05 19:34 | 46.85968 | 1.72800 | 524 ft | 6 kts | 175° |
| 2026-05-05 19:35 | 46.85891 | 1.72878 | 525 ft | 9 kts | 143° |
| 2026-05-05 19:35 | 46.85844 | 1.72908 | 525 ft | 9 kts | 166° |
| 2026-05-05 19:35 | 46.85727 | 1.72904 | 527 ft | 17 kts | 182° |
| 2026-05-05 19:35 | 46.85611 | 1.72896 | 527 ft | 15 kts | 183° |